Time;durP1;ratioP1;P1;durP2;ratioP2;P2;SDS_P1;SDS_P2;PMS_P1;PMS_P2;Temp;Humidity;BMP_temperature;BMP_pressure;BME280_temperature;BME280_humidity;BME280_pressure;Samples;Min_cycle;Max_cycle;Signal;HPM_P1;HPM_P2
2023/04/10 00:00:23;;;;;;;144.90;57.72;;;;;;;;;;5077025;28;20134;-85
2023/04/10 00:02:49;;;;;;;125.80;51.13;;;;;;;;;;5077127;28;20020;-86
2023/04/10 00:05:15;;;;;;;124.28;51.88;;;;;;;;;;5094889;28;20024;-85
2023/04/10 00:07:41;;;;;;;115.57;49.20;;;;;;;;;;5095104;28;20024;-86
2023/04/10 00:10:07;;;;;;;113.97;46.97;;;;;;;;;;5080143;28;20028;-85
2023/04/10 00:12:32;;;;;;;111.43;47.22;;;;;;;;;;5095281;28;20066;-86
2023/04/10 00:14:58;;;;;;;106.63;46.13;;;;;;;;;;5076540;28;20024;-85
2023/04/10 00:17:23;;;;;;;108.03;45.78;;;;;;;;;;5111489;28;20465;-85
2023/04/10 00:19:49;;;;;;;111.13;47.53;;;;;;;;;;5076444;28;20059;-85
2023/04/10 00:22:15;;;;;;;107.72;46.92;;;;;;;;;;5095136;28;20144;-85
2023/04/10 00:24:41;;;;;;;114.43;46.65;;;;;;;;;;5094997;28;20381;-85
2023/04/10 00:27:06;;;;;;;106.65;44.67;;;;;;;;;;5094894;28;20028;-86
2023/04/10 00:29:32;;;;;;;110.85;44.70;;;;;;;;;;5096897;28;20028;-86
2023/04/10 00:31:57;;;;;;;109.57;45.83;;;;;;;;;;5076445;28;20051;-85
2023/04/10 00:34:23;;;;;;;107.85;45.40;;;;;;;;;;5094561;28;20032;-85
2023/04/10 00:36:48;;;;;;;121.13;46.67;;;;;;;;;;5102582;28;20031;-83
2023/04/10 00:39:14;;;;;;;118.95;52.85;;;;;;;;;;5103668;28;20103;-84
2023/04/10 00:41:39;;;;;;;128.70;53.55;;;;;;;;;;5111417;28;20074;-84
2023/04/10 00:44:05;;;;;;;142.18;62.33;;;;;;;;;;5114901;28;20071;-85
2023/04/10 00:46:30;;;;;;;142.15;61.90;;;;;;;;;;5114787;28;20019;-86
2023/04/10 00:48:56;;;;;;;152.15;66.25;;;;;;;;;;5076709;28;20027;-85
2023/04/10 00:51:21;;;;;;;139.05;62.60;;;;;;;;;;5059890;28;20028;-85
2023/04/10 00:53:50;;;;;;;157.60;63.17;;;;;;;;;;5094745;28;20377;-86
2023/04/10 00:56:16;;;;;;;125.82;57.08;;;;;;;;;;5094700;28;20020;-86
2023/04/10 00:58:41;;;;;;;124.25;52.38;;;;;;;;;;5088776;28;20008;-86
2023/04/10 01:01:07;;;;;;;108.38;48.65;;;;;;;;;;5078248;28;20046;-86
2023/04/10 01:03:32;;;;;;;105.82;47.40;;;;;;;;;;5096210;28;20056;-86
2023/04/10 01:06:36;;;;;;;103.40;46.28;;;;;;;;;;5095869;28;20039;-86
2023/04/10 01:09:29;;;;;;;99.38;44.20;;;;;;;;;;5061852;28;20361;-86
2023/04/10 01:12:03;;;;;;;97.85;41.42;;;;;;;;;;5096205;28;20064;-86
2023/04/10 01:14:32;;;;;;;101.18;42.70;;;;;;;;;;5079984;28;20042;-85
2023/04/10 01:17:10;;;;;;;96.00;42.72;;;;;;;;;;5114573;28;20034;-86
2023/04/10 01:20:00;;;;;;;90.47;40.92;;;;;;;;;;5089910;28;20047;-87
2023/04/10 01:22:55;;;;;;;90.57;40.25;;;;;;;;;;5096210;28;20364;-86
2023/04/10 01:26:02;;;;;;;91.18;40.25;;;;;;;;;;5098827;28;20028;-85
2023/04/10 01:28:48;;;;;;;91.75;40.13;;;;;;;;;;4979854;28;20092;-85
2023/04/10 01:31:20;;;;;;;94.15;40.20;;;;;;;;;;5013056;28;20088;-86
2023/04/10 01:33:49;;;;;;;88.47;39.22;;;;;;;;;;5053523;28;20529;-85
2023/04/10 01:36:19;;;;;;;91.45;41.83;;;;;;;;;;5080013;28;20032;-85
2023/04/10 01:38:45;;;;;;;;;;;;;;;;;;5104441;28;20406;-86
2023/04/10 01:41:10;;;;;;;91.20;41.10;;;;;;;;;;5109353;28;19961;-86
2023/04/10 01:43:36;;;;;;;91.65;41.25;;;;;;;;;;5096291;28;20039;-85
2023/04/10 01:46:02;;;;;;;89.72;40.45;;;;;;;;;;5114584;28;20429;-86
2023/04/10 01:48:27;;;;;;;84.35;38.22;;;;;;;;;;5079174;28;20461;-86
2023/04/10 01:50:53;;;;;;;85.38;39.60;;;;;;;;;;5101447;28;20016;-85
2023/04/10 01:53:18;;;;;;;82.78;37.80;;;;;;;;;;5059904;28;20059;-85
2023/04/10 01:55:44;;;;;;;81.70;37.53;;;;;;;;;;5041978;28;20028;-86
2023/04/10 01:58:09;;;;;;;80.53;37.40;;;;;;;;;;5075501;28;20051;-85
2023/04/10 02:00:40;;;;;;;86.00;36.75;;;;;;;;;;5082489;28;20488;-83
2023/04/10 02:03:06;;;;;;;84.43;36.60;;;;;;;;;;5062713;28;20512;-86
2023/04/10 02:05:40;;;;;;;82.85;38.35;;;;;;;;;;5093682;28;20115;-86
2023/04/10 02:08:14;;;;;;;80.20;37.42;;;;;;;;;;5076641;28;20115;-86
2023/04/10 02:10:39;;;;;;;81.03;37.58;;;;;;;;;;5060582;28;20062;-86
2023/04/10 02:13:06;;;;;;;86.05;38.67;;;;;;;;;;5075664;28;20028;-86
2023/04/10 02:15:31;;;;;;;81.35;37.85;;;;;;;;;;5059031;28;20039;-85
2023/04/10 02:17:57;;;;;;;80.70;37.58;;;;;;;;;;5076385;28;20040;-85
2023/04/10 02:20:23;;;;;;;85.28;37.65;;;;;;;;;;5079313;28;20040;-84
2023/04/10 02:22:48;;;;;;;82.85;38.97;;;;;;;;;;5078123;28;20429;-85
2023/04/10 02:25:14;;;;;;;83.22;37.13;;;;;;;;;;5079751;28;20020;-85
2023/04/10 02:27:40;;;;;;;85.07;37.78;;;;;;;;;;5079285;28;20028;-84
2023/04/10 02:30:06;;;;;;;80.82;37.63;;;;;;;;;;5079880;28;20047;-84
2023/04/10 02:32:32;;;;;;;82.93;38.80;;;;;;;;;;5078910;28;20055;-85
2023/04/10 02:34:58;;;;;;;86.05;40.33;;;;;;;;;;5078962;28;20478;-85
2023/04/10 02:37:23;;;;;;;78.68;38.50;;;;;;;;;;5062150;28;20138;-84
2023/04/10 02:39:49;;;;;;;86.32;39.22;;;;;;;;;;5096815;28;20421;-85
2023/04/10 02:42:15;;;;;;;79.65;37.83;;;;;;;;;;5102456;28;20052;-83
2023/04/10 02:44:40;;;;;;;79.95;37.05;;;;;;;;;;5088397;28;20085;-86
2023/04/10 02:47:06;;;;;;;80.28;36.08;;;;;;;;;;5078302;28;20089;-84
2023/04/10 02:49:33;;;;;;;76.65;36.75;;;;;;;;;;5096478;28;20024;-84
2023/04/10 02:51:59;;;;;;;77.03;36.25;;;;;;;;;;5094347;28;20400;-85
2023/04/10 02:54:24;;;;;;;78.82;37.13;;;;;;;;;;5078561;28;20036;-86
2023/04/10 02:56:49;;;;;;;75.80;37.88;;;;;;;;;;5078404;28;20092;-86
2023/04/10 02:59:15;;;;;;;83.05;38.92;;;;;;;;;;5078270;28;20024;-86
2023/04/10 03:01:40;;;;;;;82.88;38.03;;;;;;;;;;5078620;28;20115;-86
2023/04/10 03:04:06;;;;;;;88.53;39.33;;;;;;;;;;5107347;28;20065;-86
2023/04/10 03:06:32;;;;;;;90.22;41.00;;;;;;;;;;5078342;28;20051;-86
2023/04/10 03:08:58;;;;;;;100.13;44.00;;;;;;;;;;5078492;28;20067;-85
2023/04/10 03:11:23;;;;;;;96.28;45.08;;;;;;;;;;5099020;28;20020;-85
2023/04/10 03:13:48;;;;;;;93.47;45.08;;;;;;;;;;5095986;28;20103;-85
2023/04/10 03:16:16;;;;;;;89.43;42.17;;;;;;;;;;5096119;28;20107;-84
2023/04/10 03:18:41;;;;;;;86.07;41.22;;;;;;;;;;5077830;28;20026;-85
2023/04/10 03:21:07;;;;;;;91.50;41.45;;;;;;;;;;5096456;28;20130;-86
2023/04/10 03:23:32;;;;;;;88.20;40.72;;;;;;;;;;5097253;28;20070;-85
2023/04/10 03:25:57;;;;;;;87.47;40.83;;;;;;;;;;5115091;28;20036;-86
2023/04/10 03:28:23;;;;;;;94.45;40.58;;;;;;;;;;5097082;28;20040;-84
2023/04/10 03:30:49;;;;;;;85.35;39.55;;;;;;;;;;5099227;28;20047;-85
2023/04/10 03:33:14;;;;;;;90.20;41.47;;;;;;;;;;5096185;28;20459;-86
2023/04/10 03:35:40;;;;;;;89.07;41.22;;;;;;;;;;5060899;28;20043;-85
2023/04/10 03:38:05;;;;;;;86.88;40.20;;;;;;;;;;5095993;28;20404;-85
2023/04/10 03:40:33;;;;;;;90.63;41.95;;;;;;;;;;5095801;28;20457;-86
2023/04/10 03:42:58;;;;;;;94.82;40.85;;;;;;;;;;5095720;28;20452;-85
2023/04/10 03:45:24;;;;;;;98.90;42.50;;;;;;;;;;5088420;28;20072;-84
2023/04/10 03:47:51;;;;;;;92.03;41.67;;;;;;;;;;5102117;28;20038;-85
2023/04/10 03:50:16;;;;;;;91.05;40.42;;;;;;;;;;5081706;28;20087;-86
2023/04/10 03:52:42;;;;;;;97.43;42.45;;;;;;;;;;5098662;28;20063;-86
2023/04/10 03:55:07;;;;;;;94.25;41.83;;;;;;;;;;5095757;28;20036;-86
2023/04/10 03:57:33;;;;;;;98.78;42.33;;;;;;;;;;5076831;28;20114;-85
2023/04/10 03:59:58;;;;;;;96.00;42.13;;;;;;;;;;5077115;28;20118;-85
2023/04/10 04:02:24;;;;;;;93.35;41.20;;;;;;;;;;5076815;28;20032;-85
2023/04/10 04:04:49;;;;;;;92.18;40.38;;;;;;;;;;5076973;28;20035;-86
2023/04/10 04:07:14;;;;;;;93.70;41.55;;;;;;;;;;5110874;28;20040;-85
2023/04/10 04:09:40;;;;;;;101.05;43.70;;;;;;;;;;5077882;28;20032;-85
2023/04/10 04:12:06;;;;;;;102.20;43.28;;;;;;;;;;5100749;28;20036;-86
2023/04/10 04:14:32;;;;;;;91.47;41.58;;;;;;;;;;5094793;28;20106;-86
2023/04/10 04:16:57;;;;;;;92.00;43.15;;;;;;;;;;5094510;28;20040;-87
2023/04/10 04:19:23;;;;;;;98.28;45.15;;;;;;;;;;5060425;28;20043;-86
2023/04/10 04:21:48;;;;;;;112.68;47.88;;;;;;;;;;5094520;28;20035;-87
2023/04/10 04:24:14;;;;;;;110.35;49.88;;;;;;;;;;5094761;28;20039;-87
2023/04/10 04:26:39;;;;;;;103.60;46.80;;;;;;;;;;5094498;28;20024;-86
2023/04/10 04:29:05;;;;;;;108.57;46.92;;;;;;;;;;5101627;28;20043;-87
2023/04/10 04:31:31;;;;;;;104.30;48.88;;;;;;;;;;5096897;28;20073;-87
2023/04/10 04:34:00;;;;;;;101.88;48.10;;;;;;;;;;5095949;28;20173;-87
2023/04/10 04:36:26;;;;;;;101.88;47.50;;;;;;;;;;5076740;28;20081;-86
2023/04/10 04:38:52;;;;;;;117.00;48.90;;;;;;;;;;5095964;28;20020;-87
2023/04/10 04:41:17;;;;;;;103.18;47.58;;;;;;;;;;5089997;28;20030;-80
2023/04/10 04:43:43;;;;;;;100.38;46.65;;;;;;;;;;5114790;28;20069;-80
2023/04/10 04:46:09;;;;;;;102.50;45.75;;;;;;;;;;5097006;28;20028;-80
2023/04/10 04:48:34;;;;;;;107.47;46.25;;;;;;;;;;5105252;28;20011;-84
2023/04/10 04:51:00;;;;;;;96.88;45.75;;;;;;;;;;5120375;28;20023;-87
2023/04/10 04:53:25;;;;;;;89.82;42.83;;;;;;;;;;5100324;28;20297;-89
2023/04/10 04:55:51;;;;;;;100.22;45.78;;;;;;;;;;5069814;28;20056;-87
2023/04/10 04:58:16;;;;;;;104.45;47.15;;;;;;;;;;5059632;28;20064;-87
2023/04/10 05:00:41;;;;;;;108.45;49.95;;;;;;;;;;5073810;28;20028;-90
2023/04/10 05:03:07;;;;;;;121.70;55.20;;;;;;;;;;5074046;28;20028;-89
2023/04/10 05:05:32;;;;;;;135.55;59.63;;;;;;;;;;5040504;28;20085;-88
2023/04/10 05:07:58;;;;;;;128.43;56.88;;;;;;;;;;5090212;28;20043;-88
2023/04/10 05:10:23;;;;;;;158.07;67.18;;;;;;;;;;5075554;28;20084;-87
2023/04/10 05:12:49;;;;;;;114.60;53.08;;;;;;;;;;5068380;28;20374;-89
2023/04/10 05:15:14;;;;;;;116.53;50.95;;;;;;;;;;5036350;28;20019;-89
2023/04/10 05:17:40;;;;;;;122.80;60.58;;;;;;;;;;5075338;28;20084;-88
2023/04/10 05:20:06;;;;;;;103.28;49.67;;;;;;;;;;5091388;28;20367;-88
2023/04/10 05:22:32;;;;;;;97.90;46.20;;;;;;;;;;5080433;28;20032;-90
2023/04/10 05:24:58;;;;;;;91.13;45.80;;;;;;;;;;5077633;28;20102;-89
2023/04/10 05:27:24;;;;;;;100.45;44.92;;;;;;;;;;5059752;28;20030;-88
2023/04/10 05:29:49;;;;;;;92.40;42.97;;;;;;;;;;5092997;28;20024;-84
2023/04/10 05:32:15;;;;;;;83.00;42.30;;;;;;;;;;5090051;28;20037;-89
2023/04/10 05:34:40;;;;;;;81.80;42.75;;;;;;;;;;5074868;28;20454;-87
2023/04/10 05:37:05;;;;;;;89.95;44.20;;;;;;;;;;5056996;28;20028;-87
2023/04/10 05:39:31;;;;;;;89.40;43.85;;;;;;;;;;5075201;28;20028;-88
2023/04/10 05:41:57;;;;;;;87.68;42.60;;;;;;;;;;5105764;28;20032;-87
2023/04/10 05:44:23;;;;;;;91.72;41.30;;;;;;;;;;5133181;28;20039;-87
2023/04/10 05:46:48;;;;;;;68.35;36.45;;;;;;;;;;5128975;28;20079;-87
2023/04/10 05:49:14;;;;;;;70.13;35.50;;;;;;;;;;5124353;28;20031;-87
2023/04/10 05:51:39;;;;;;;75.38;36.22;;;;;;;;;;5124788;28;20039;-88
2023/04/10 05:54:05;;;;;;;71.20;37.35;;;;;;;;;;5117974;28;20028;-89
2023/04/10 05:56:30;;;;;;;71.75;36.47;;;;;;;;;;5078947;28;20027;-89
2023/04/10 05:58:55;;;;;;;73.65;35.55;;;;;;;;;;5079606;28;20040;-89
2023/04/10 06:01:21;;;;;;;65.30;34.75;;;;;;;;;;5097916;28;20024;-89
2023/04/10 06:03:46;;;;;;;64.93;34.63;;;;;;;;;;5097492;28;20036;-89
2023/04/10 06:06:12;;;;;;;68.82;35.47;;;;;;;;;;5097922;28;20120;-90
2023/04/10 06:08:37;;;;;;;62.08;33.13;;;;;;;;;;5079449;28;20024;-89
2023/04/10 06:11:03;;;;;;;66.68;35.30;;;;;;;;;;5103319;28;20015;-85
2023/04/10 06:13:28;;;;;;;106.93;51.22;;;;;;;;;;5091515;28;20044;-89
2023/04/10 06:15:54;;;;;;;76.75;39.88;;;;;;;;;;5080912;28;20028;-87
2023/04/10 06:18:19;;;;;;;84.45;41.40;;;;;;;;;;5097935;28;20044;-85
2023/04/10 06:20:45;;;;;;;79.75;44.90;;;;;;;;;;5059802;28;20640;-86
2023/04/10 06:23:12;;;;;;;75.47;43.08;;;;;;;;;;5076808;28;20043;-86
2023/04/10 06:25:37;;;;;;;72.13;39.20;;;;;;;;;;5078354;28;20393;-88
2023/04/10 06:28:03;;;;;;;70.90;39.00;;;;;;;;;;5077426;28;20039;-86
2023/04/10 06:30:29;;;;;;;74.93;39.92;;;;;;;;;;5077266;28;20149;-87
2023/04/10 06:32:55;;;;;;;73.60;38.83;;;;;;;;;;5088472;28;20025;-82
2023/04/10 06:35:20;;;;;;;76.93;39.13;;;;;;;;;;5060754;28;20126;-85
2023/04/10 06:37:46;;;;;;;73.03;39.38;;;;;;;;;;5075173;28;20116;-84
2023/04/10 06:40:12;;;;;;;75.38;39.40;;;;;;;;;;5072574;28;20434;-84
2023/04/10 06:42:38;;;;;;;109.88;57.28;;;;;;;;;;5021605;28;20424;-86
2023/04/10 06:45:04;;;;;;;94.68;42.90;;;;;;;;;;5055450;28;20139;-89
2023/04/10 06:47:30;;;;;;;87.30;44.22;;;;;;;;;;5055339;28;20033;-84
2023/04/10 06:49:56;;;;;;;82.35;41.30;;;;;;;;;;5038055;28;20357;-88
2023/04/10 06:52:21;;;;;;;81.90;42.15;;;;;;;;;;5037933;28;20028;-87
2023/04/10 06:54:47;;;;;;;81.43;41.28;;;;;;;;;;5066384;28;20083;-86
2023/04/10 06:57:13;;;;;;;79.50;40.47;;;;;;;;;;5054699;28;20054;-86
2023/04/10 06:59:38;;;;;;;78.75;41.25;;;;;;;;;;5053683;28;20029;-85
2023/04/10 07:02:04;;;;;;;74.47;40.75;;;;;;;;;;5056164;28;20037;-89
2023/04/10 07:04:30;;;;;;;78.70;41.72;;;;;;;;;;5054036;28;20037;-87
2023/04/10 07:06:55;;;;;;;79.70;41.72;;;;;;;;;;5056404;28;20032;-85
2023/04/10 07:09:21;;;;;;;88.82;44.80;;;;;;;;;;5058446;28;20408;-86
2023/04/10 07:11:47;;;;;;;82.40;43.33;;;;;;;;;;5056624;28;20131;-88
2023/04/10 07:14:12;;;;;;;88.82;43.03;;;;;;;;;;5065949;28;20033;-83
2023/04/10 07:16:38;;;;;;;88.63;42.65;;;;;;;;;;5048706;28;20079;-88
2023/04/10 07:19:03;;;;;;;86.97;43.00;;;;;;;;;;5069590;28;20036;-85
2023/04/10 07:21:29;;;;;;;77.72;39.22;;;;;;;;;;5096442;28;20464;-87
2023/04/10 07:23:57;;;;;;;82.75;42.53;;;;;;;;;;5077676;28;20032;-86
2023/04/10 07:26:22;;;;;;;90.40;43.75;;;;;;;;;;5097759;28;20024;-87
2023/04/10 07:28:48;;;;;;;87.72;42.55;;;;;;;;;;5100024;28;20077;-89
2023/04/10 07:31:13;;;;;;;87.15;41.83;;;;;;;;;;5116129;28;20027;-94
2023/04/10 07:33:39;;;;;;;82.60;40.78;;;;;;;;;;5118377;28;20016;-90
2023/04/10 07:36:05;;;;;;;92.20;44.03;;;;;;;;;;5132424;28;20071;-88
2023/04/10 07:38:31;;;;;;;85.78;43.30;;;;;;;;;;5118644;28;20038;-87
2023/04/10 07:40:57;;;;;;;86.18;44.85;;;;;;;;;;5116491;28;20016;-91
2023/04/10 07:43:23;;;;;;;85.00;41.40;;;;;;;;;;5081696;28;20027;-85
2023/04/10 07:45:48;;;;;;;86.03;43.50;;;;;;;;;;5099126;28;20461;-85
2023/04/10 07:48:14;;;;;;;99.93;46.53;;;;;;;;;;5100730;28;20395;-86
2023/04/10 07:50:42;;;;;;;103.90;42.70;;;;;;;;;;5084578;28;20053;-87
2023/04/10 07:53:08;;;;;;;83.18;41.72;;;;;;;;;;5103712;28;20023;-86
2023/04/10 07:55:52;;;;;;;85.50;41.42;;;;;;;;;;5050760;28;20043;-86
2023/04/10 07:58:18;;;;;;;82.68;42.55;;;;;;;;;;5065716;28;20449;-84
2023/04/10 08:00:43;;;;;;;95.05;41.25;;;;;;;;;;5091511;28;20011;-87
2023/04/10 08:03:10;;;;;;;87.50;42.03;;;;;;;;;;5103681;28;20027;-88
2023/04/10 08:05:35;;;;;;;81.65;42.80;;;;;;;;;;5081617;28;20023;-87
2023/04/10 08:08:01;;;;;;;81.18;42.15;;;;;;;;;;5121764;28;20066;-87
2023/04/10 08:10:37;;;;;;;89.32;45.67;;;;;;;;;;5116576;28;20024;-87
2023/04/10 08:13:08;;;;;;;83.57;42.47;;;;;;;;;;5098636;28;20056;-89
2023/04/10 08:15:34;;;;;;;84.47;42.58;;;;;;;;;;5114455;28;20118;-86
2023/04/10 08:17:59;;;;;;;79.72;42.38;;;;;;;;;;5130180;28;20097;-87
2023/04/10 08:20:25;;;;;;;85.18;42.83;;;;;;;;;;5114171;28;20053;-87
2023/04/10 08:22:53;;;;;;;85.72;44.63;;;;;;;;;;5096241;28;20046;-86
2023/04/10 08:25:19;;;;;;;87.30;42.58;;;;;;;;;;5096396;28;20120;-86
2023/04/10 08:27:44;;;;;;;82.10;42.33;;;;;;;;;;5115050;28;20039;-87
2023/04/10 08:30:10;;;;;;;81.85;44.22;;;;;;;;;;5117659;28;20046;-88
2023/04/10 08:32:35;;;;;;;85.32;44.00;;;;;;;;;;5098350;28;20067;-87
2023/04/10 08:35:01;;;;;;;87.35;44.72;;;;;;;;;;5096800;28;20114;-86
2023/04/10 08:37:28;;;;;;;87.40;44.80;;;;;;;;;;5119944;28;20042;-87
2023/04/10 08:39:53;;;;;;;78.90;43.72;;;;;;;;;;5102630;28;20048;-87
2023/04/10 08:42:18;;;;;;;86.13;44.17;;;;;;;;;;5096082;28;20023;-86
2023/04/10 08:44:45;;;;;;;84.85;44.17;;;;;;;;;;5095959;28;20066;-89
2023/04/10 08:47:10;;;;;;;87.93;43.88;;;;;;;;;;5079939;28;20038;-87
2023/04/10 08:49:39;;;;;;;83.57;42.75;;;;;;;;;;5098706;28;20106;-88
2023/04/10 08:52:08;;;;;;;91.25;43.22;;;;;;;;;;5097336;28;20206;-88
2023/04/10 08:54:35;;;;;;;;;;;;;;;;;;5096279;28;20042;-87
2023/04/10 08:57:00;;;;;;;82.57;41.75;;;;;;;;;;5115262;28;19975;-89
2023/04/10 08:59:32;;;;;;;77.68;40.58;;;;;;;;;;5112502;28;20027;-87
2023/04/10 09:01:58;;;;;;;79.38;41.55;;;;;;;;;;5112672;28;20462;-88
2023/04/10 09:04:24;;;;;;;77.60;42.17;;;;;;;;;;5080222;28;20063;-86
2023/04/10 09:06:50;;;;;;;85.28;45.45;;;;;;;;;;5116610;28;20054;-87
2023/04/10 09:09:16;;;;;;;87.20;42.83;;;;;;;;;;5078621;28;20118;-88
2023/04/10 09:11:54;;;;;;;83.32;41.80;;;;;;;;;;5095241;28;20520;-91
2023/04/10 09:14:41;;;;;;;86.13;42.97;;;;;;;;;;5114125;28;20088;-87
2023/04/10 09:17:17;;;;;;;85.18;43.80;;;;;;;;;;5092094;28;20032;-88
2023/04/10 09:19:44;;;;;;;86.88;44.60;;;;;;;;;;5108847;28;20036;-83
2023/04/10 09:22:10;;;;;;;76.20;40.67;;;;;;;;;;5088760;28;20023;-86
2023/04/10 09:24:37;;;;;;;86.13;44.50;;;;;;;;;;5096516;28;20127;-85
2023/04/10 09:27:03;;;;;;;80.07;40.50;;;;;;;;;;5099786;28;20368;-86
2023/04/10 09:29:41;;;;;;;82.65;41.40;;;;;;;;;;5103622;28;20076;-88
2023/04/10 09:32:06;;;;;;;76.28;38.25;;;;;;;;;;5121971;28;20024;-89
2023/04/10 09:34:31;;;;;;;78.07;40.92;;;;;;;;;;5125766;28;20078;-88
2023/04/10 09:36:58;;;;;;;79.25;40.33;;;;;;;;;;5103829;28;20019;-86
2023/04/10 09:39:34;;;;;;;73.78;39.33;;;;;;;;;;5137374;28;20035;-86
2023/04/10 09:42:00;;;;;;;77.20;38.75;;;;;;;;;;5123636;28;20411;-92
2023/04/10 09:44:33;;;;;;;76.72;38.67;;;;;;;;;;5103176;28;20039;-91
2023/04/10 09:47:19;;;;;;;75.45;38.88;;;;;;;;;;5104511;28;20393;-88
2023/04/10 09:49:48;;;;;;;72.50;37.58;;;;;;;;;;5103000;28;20016;-88
2023/04/10 09:52:25;;;;;;;71.37;38.23;;;;;;;;;;5101685;28;20034;-87
2023/04/10 09:54:51;;;;;;;74.25;38.17;;;;;;;;;;5118534;28;20272;-91
2023/04/10 09:57:18;;;;;;;74.43;40.20;;;;;;;;;;5118552;28;20066;-88
2023/04/10 09:59:49;;;;;;;73.85;39.85;;;;;;;;;;5124389;28;20027;-85
2023/04/10 10:02:15;;;;;;;78.47;38.63;;;;;;;;;;5101703;28;20043;-84
2023/04/10 10:04:41;;;;;;;73.85;40.15;;;;;;;;;;5102112;28;20050;-88
2023/04/10 10:07:06;;;;;;;72.00;39.38;;;;;;;;;;5085871;28;20356;-87
2023/04/10 10:09:32;;;;;;;75.55;40.38;;;;;;;;;;5085373;28;20028;-87
2023/04/10 10:11:57;;;;;;;74.25;40.22;;;;;;;;;;5120914;28;20047;-83
2023/04/10 10:14:23;;;;;;;67.93;38.63;;;;;;;;;;5082737;28;20023;-83
2023/04/10 10:16:49;;;;;;;74.93;39.17;;;;;;;;;;5093473;28;20116;-88
2023/04/10 10:19:20;;;;;;;87.90;43.25;;;;;;;;;;5069398;28;20044;-91
2023/04/10 10:21:46;;;;;;;77.28;39.53;;;;;;;;;;5113061;28;20462;-89
2023/04/10 10:24:12;;;;;;;77.25;40.42;;;;;;;;;;5089608;28;20032;-91
2023/04/10 10:26:38;;;;;;;80.65;40.47;;;;;;;;;;5081836;28;20024;-89
2023/04/10 10:29:05;;;;;;;68.65;37.67;;;;;;;;;;5079253;28;20024;-92
2023/04/10 10:31:32;;;;;;;82.47;42.45;;;;;;;;;;5097518;28;20032;-86
2023/04/10 10:34:03;;;;;;;76.93;41.22;;;;;;;;;;5062820;28;20035;-90
2023/04/10 10:36:30;;;;;;;70.55;39.03;;;;;;;;;;5064105;28;20123;-90
2023/04/10 10:39:37;;;;;;;79.03;40.38;;;;;;;;;;5079132;28;20024;-85
2023/04/10 10:42:18;;;;;;;76.03;39.55;;;;;;;;;;5090738;28;20044;-88
2023/04/10 10:45:20;;;;;;;72.82;38.78;;;;;;;;;;5070522;28;20378;-90
2023/04/10 10:47:53;;;;;;;71.22;38.80;;;;;;;;;;5097499;28;20042;-91
2023/04/10 10:50:18;;;;;;;72.97;38.00;;;;;;;;;;5097562;28;20024;-86
2023/04/10 10:52:56;;;;;;;77.18;39.83;;;;;;;;;;5098415;28;20123;-93
2023/04/10 10:55:24;;;;;;;71.95;38.67;;;;;;;;;;5080430;28;20043;-89
2023/04/10 10:57:54;;;;;;;68.47;37.05;;;;;;;;;;5098410;28;20457;-90
2023/04/10 11:00:23;;;;;;;82.15;40.33;;;;;;;;;;5106740;28;20027;-87
2023/04/10 11:03:07;;;;;;;70.57;37.60;;;;;;;;;;5096481;28;20043;-88
2023/04/10 11:06:01;;;;;;;68.03;37.00;;;;;;;;;;5097181;28;20043;-88
2023/04/10 11:08:42;;;;;;;73.60;36.83;;;;;;;;;;5101185;28;20027;-89
2023/04/10 11:11:19;;;;;;;83.03;41.38;;;;;;;;;;5090427;28;20036;-86
2023/04/10 11:13:56;;;;;;;70.05;37.35;;;;;;;;;;5074766;28;20091;-87
2023/04/10 11:16:23;;;;;;;69.38;36.95;;;;;;;;;;5109491;28;20008;-91
2023/04/10 11:18:49;;;;;;;66.40;37.25;;;;;;;;;;5077498;28;20059;-88
2023/04/10 11:21:21;;;;;;;73.63;38.42;;;;;;;;;;5128013;28;20028;-90
2023/04/10 11:23:56;;;;;;;75.22;37.13;;;;;;;;;;5116797;28;20031;-87
2023/04/10 11:29:02;;;;;;;71.70;36.17;;;;;;;;;;5116867;28;20020;-89
2023/04/10 11:31:27;;;;;;;66.50;36.17;;;;;;;;;;5116555;28;20038;-90
2023/04/10 11:33:59;;;;;;;62.22;32.60;;;;;;;;;;5098505;28;20108;-88
2023/04/10 11:36:24;;;;;;;55.72;31.13;;;;;;;;;;5116561;28;20027;-89
2023/04/10 11:39:09;;;;;;;64.65;31.23;;;;;;;;;;5116130;28;20030;-95
2023/04/10 11:41:44;;;;;;;70.85;31.98;;;;;;;;;;5116920;28;20076;-91
2023/04/10 11:44:11;;;;;;;65.00;31.83;;;;;;;;;;5113841;28;20160;-89
2023/04/10 11:46:38;;;;;;;61.70;32.15;;;;;;;;;;5098461;28;20395;-90
2023/04/10 11:49:04;;;;;;;65.80;31.30;;;;;;;;;;5116187;28;20417;-91
2023/04/10 11:51:30;;;;;;;65.22;34.92;;;;;;;;;;5097477;28;20441;-89
2023/04/10 11:54:26;;;;;;;83.20;43.08;;;;;;;;;;5116159;28;20020;-89
2023/04/10 11:57:02;;;;;;;60.03;32.38;;;;;;;;;;5099050;28;20057;-86
2023/04/10 11:59:27;;;;;;;55.85;30.95;;;;;;;;;;5098938;28;20035;-87
2023/04/10 12:02:05;;;;;;;56.03;28.92;;;;;;;;;;5065570;28;20417;-87
2023/04/10 12:04:31;;;;;;;51.30;28.40;;;;;;;;;;5108142;28;20027;-89
2023/04/10 12:06:56;;;;;;;54.13;30.00;;;;;;;;;;5102899;28;20035;-89
2023/04/10 12:09:22;;;;;;;60.05;31.70;;;;;;;;;;5081754;28;20066;-89
2023/04/10 12:12:04;;;;;;;49.95;28.52;;;;;;;;;;5097293;28;20076;-89
2023/04/10 12:14:32;;;;;;;53.08;28.73;;;;;;;;;;5097982;28;20447;-89
2023/04/10 12:16:58;;;;;;;51.75;26.70;;;;;;;;;;5097167;28;20384;-88
2023/04/10 12:19:24;;;;;;;55.42;28.23;;;;;;;;;;5080594;28;20496;-90
2023/04/10 12:21:50;;;;;;;50.95;26.55;;;;;;;;;;5080804;28;20032;-88
2023/04/10 12:24:44;;;;;;;48.95;26.25;;;;;;;;;;5077592;28;20031;-86
2023/04/10 12:27:24;;;;;;;44.13;26.38;;;;;;;;;;5105607;28;20480;-87
2023/04/10 12:29:51;;;;;;;47.22;24.90;;;;;;;;;;5077049;28;20036;-88
2023/04/10 12:32:16;;;;;;;45.88;25.98;;;;;;;;;;5078114;28;20039;-92
2023/04/10 12:34:49;;;;;;;48.22;24.50;;;;;;;;;;5060202;28;20404;-86
2023/04/10 12:37:14;;;;;;;42.70;24.38;;;;;;;;;;5094969;28;20066;-91
2023/04/10 12:39:40;;;;;;;40.50;25.67;;;;;;;;;;5076743;28;20063;-91
2023/04/10 12:42:15;;;;;;;45.00;26.45;;;;;;;;;;5080867;28;20028;-87
2023/04/10 12:44:55;;;;;;;48.33;26.02;;;;;;;;;;5080139;28;20396;-88
2023/04/10 12:47:21;;;;;;;42.95;25.60;;;;;;;;;;5107887;28;20365;-94
2023/04/10 12:50:09;;;;;;;48.38;26.05;;;;;;;;;;5096426;28;20058;-88
2023/04/10 12:52:35;;;;;;;40.70;24.45;;;;;;;;;;5096299;28;20404;-89
2023/04/10 12:55:17;;;;;;;40.80;24.30;;;;;;;;;;5060677;28;20036;-89
2023/04/10 12:57:47;;;;;;;39.13;23.52;;;;;;;;;;5095182;28;20365;-93
2023/04/10 13:00:14;;;;;;;42.72;22.88;;;;;;;;;;5062365;28;20031;-90
2023/04/10 13:02:44;;;;;;;39.53;23.10;;;;;;;;;;5100912;28;20063;-93
2023/04/10 13:05:10;;;;;;;39.90;23.33;;;;;;;;;;5062933;28;20107;-93
2023/04/10 13:07:36;;;;;;;36.25;21.35;;;;;;;;;;5106857;28;20401;-91
2023/04/10 13:10:01;;;;;;;36.33;21.45;;;;;;;;;;5079774;28;20024;-94
2023/04/10 13:12:28;;;;;;;34.60;21.02;;;;;;;;;;5077842;28;20084;-89
2023/04/10 13:14:54;;;;;;;30.50;19.35;;;;;;;;;;5095024;28;20032;-89
2023/04/10 13:17:23;;;;;;;33.25;19.20;;;;;;;;;;5060053;28;20069;-88
2023/04/10 13:19:49;;;;;;;34.40;19.20;;;;;;;;;;5095660;28;20181;-88
2023/04/10 13:22:14;;;;;;;35.45;22.42;;;;;;;;;;5098031;28;20058;-90
2023/04/10 13:24:40;;;;;;;38.50;21.42;;;;;;;;;;5107334;28;20045;-94
2023/04/10 13:27:06;;;;;;;30.35;19.88;;;;;;;;;;5108314;28;20019;-90
2023/04/10 13:29:31;;;;;;;28.73;18.85;;;;;;;;;;5096363;28;20043;-90
2023/04/10 13:31:58;;;;;;;34.78;20.17;;;;;;;;;;5118193;28;20028;-88
2023/04/10 13:34:24;;;;;;;35.83;20.17;;;;;;;;;;5127965;28;20038;-88
2023/04/10 13:36:50;;;;;;;42.05;22.15;;;;;;;;;;5128024;28;20015;-91
2023/04/10 13:39:17;;;;;;;40.50;20.88;;;;;;;;;;5129248;28;20022;-83
2023/04/10 13:41:42;;;;;;;40.17;20.65;;;;;;;;;;5119481;28;20039;-84
2023/04/10 13:44:08;;;;;;;30.25;19.17;;;;;;;;;;5119859;28;20024;-86
2023/04/10 13:46:33;;;;;;;33.03;20.83;;;;;;;;;;5135589;28;20071;-87
2023/04/10 13:48:59;;;;;;;32.45;19.77;;;;;;;;;;5126658;28;20037;-85
2023/04/10 13:51:24;;;;;;;35.03;21.58;;;;;;;;;;5118977;28;20415;-93
2023/04/10 13:53:50;;;;;;;36.60;20.42;;;;;;;;;;5099176;28;20066;-92
2023/04/10 13:56:15;;;;;;;32.75;20.67;;;;;;;;;;5084706;28;20050;-93
2023/04/10 13:58:41;;;;;;;35.22;19.98;;;;;;;;;;5100128;28;20027;-89
2023/04/10 14:01:06;;;;;;;37.15;20.85;;;;;;;;;;5104043;28;20027;-90
2023/04/10 14:03:32;;;;;;;40.28;21.33;;;;;;;;;;5099305;28;20035;-89
2023/04/10 14:05:57;;;;;;;33.72;20.67;;;;;;;;;;5099669;28;20040;-89
2023/04/10 14:08:23;;;;;;;31.27;18.75;;;;;;;;;;5115152;28;20042;-89
2023/04/10 14:10:49;;;;;;;29.40;18.95;;;;;;;;;;5128041;28;20065;-88
2023/04/10 14:13:16;;;;;;;28.88;18.30;;;;;;;;;;5099357;28;20047;-92
2023/04/10 14:15:41;;;;;;;32.83;18.63;;;;;;;;;;5118064;28;20027;-89
2023/04/10 14:18:07;;;;;;;30.02;18.52;;;;;;;;;;5099985;28;20103;-90
2023/04/10 14:20:32;;;;;;;30.60;18.08;;;;;;;;;;5126337;28;20065;-88
2023/04/10 14:22:58;;;;;;;33.15;19.33;;;;;;;;;;5082534;28;20116;-91